Time;durP1;ratioP1;P1;durP2;ratioP2;P2;SDS_P1;SDS_P2;PMS_P1;PMS_P2;Temp;Humidity;BMP_temperature;BMP_pressure;BME280_temperature;BME280_humidity;BME280_pressure;Samples;Min_cycle;Max_cycle;Signal;HPM_P1;HPM_P2
2023/05/21 00:02:16;;;;;;;4.35;3.78;;;14.20;99.90;;;;;;5029942;28;20435;-80
2023/05/21 00:04:42;;;;;;;5.72;3.47;;;14.10;99.90;;;;;;5029978;28;20501;-80
2023/05/21 00:07:08;;;;;;;4.45;3.28;;;14.10;99.90;;;;;;5033441;28;20435;-77
2023/05/21 00:09:37;;;;;;;5.45;3.50;;;14.10;99.90;;;;;;5030840;28;20426;-80
2023/05/21 00:12:03;;;;;;;4.50;3.58;;;14.20;99.90;;;;;;5030597;28;20431;-75
2023/05/21 00:14:29;;;;;;;4.85;3.53;;;14.20;99.90;;;;;;5030750;28;20450;-76
2023/05/21 00:16:54;;;;;;;6.03;4.07;;;14.20;99.90;;;;;;5013213;28;20475;-73
2023/05/21 00:19:20;;;;;;;4.45;3.53;;;14.20;99.90;;;;;;5028988;28;20419;-79
2023/05/21 00:21:46;;;;;;;7.87;3.87;;;14.10;99.90;;;;;;5031042;28;20917;-79
2023/05/21 00:24:11;;;;;;;5.67;3.37;;;14.10;99.90;;;;;;5029499;28;20423;-79
2023/05/21 00:26:37;;;;;;;5.07;4.00;;;14.20;99.90;;;;;;5030699;28;20826;-77
2023/05/21 00:29:03;;;;;;;8.35;4.20;;;14.20;99.90;;;;;;5030243;28;20465;-82
2023/05/21 00:31:30;;;;;;;5.88;3.95;;;14.20;99.90;;;;;;5029237;28;20438;-80
2023/05/21 00:33:57;;;;;;;5.97;4.03;;;14.20;99.90;;;;;;5030901;28;20468;-80
2023/05/21 00:36:22;;;;;;;6.40;4.20;;;14.10;99.90;;;;;;5028292;28;20427;-79
2023/05/21 00:38:49;;;;;;;6.10;4.25;;;14.10;99.90;;;;;;5030712;28;20437;-79
2023/05/21 00:41:15;;;;;;;6.97;3.70;;;14.10;99.90;;;;;;5028386;28;20419;-80
2023/05/21 00:43:43;;;;;;;4.63;3.28;;;14.00;99.90;;;;;;5029548;28;20434;-82
2023/05/21 00:46:19;;;;;;;5.72;3.42;;;14.10;99.90;;;;;;5025954;28;20944;-81
2023/05/21 00:48:46;;;;;;;4.72;3.38;;;14.10;99.90;;;;;;5023080;28;20422;-80
2023/05/21 00:51:17;;;;;;;7.03;4.55;;;14.10;99.90;;;;;;5024309;28;20415;-80
2023/05/21 00:53:45;;;;;;;4.97;3.20;;;14.20;99.90;;;;;;5014851;28;20428;-75
2023/05/21 00:56:11;;;;;;;5.38;3.72;;;14.00;99.90;;;;;;5022482;28;20740;-79
2023/05/21 00:58:38;;;;;;;6.43;3.45;;;14.00;99.90;;;;;;5025132;28;20430;-81
2023/05/21 01:01:05;;;;;;;4.57;3.58;;;13.90;99.90;;;;;;5024776;28;20514;-79
2023/05/21 01:03:37;;;;;;;4.40;3.70;;;13.90;99.90;;;;;;5026298;28;20439;-80
2023/05/21 01:06:07;;;;;;;7.70;3.63;;;13.90;99.90;;;;;;5025518;28;20435;-80
2023/05/21 01:08:36;;;;;;;5.38;3.45;;;13.90;99.90;;;;;;5026108;28;20485;-78
2023/05/21 01:11:06;;;;;;;5.53;3.80;;;13.90;99.90;;;;;;5021325;28;20428;-81
2023/05/21 01:13:34;;;;;;;7.60;4.47;;;13.80;99.90;;;;;;5025684;28;20486;-73
2023/05/21 01:16:01;;;;;;;7.70;4.00;;;13.80;99.90;;;;;;5026562;28;20500;-79
2023/05/21 01:18:27;;;;;;;5.78;3.83;;;13.80;99.90;;;;;;5024974;28;21401;-77
2023/05/21 01:20:54;;;;;;;5.93;4.15;;;13.70;99.90;;;;;;5020476;28;20899;-76
2023/05/21 01:23:20;;;;;;;5.93;3.53;;;13.70;99.90;;;;;;5024067;28;20438;-81
2023/05/21 01:25:46;;;;;;;5.13;3.47;;;13.70;99.90;;;;;;5027330;28;20423;-77
2023/05/21 01:28:12;;;;;;;4.78;3.80;;;13.70;99.90;;;;;;5025244;28;20442;-79
2023/05/21 01:30:40;;;;;;;5.00;3.70;;;13.70;99.90;;;;;;5022575;28;20434;-80
2023/05/21 01:33:19;;;;;;;5.53;4.13;;;13.70;99.90;;;;;;5027646;28;20451;-80
2023/05/21 01:36:01;;;;;;;6.75;3.50;;;13.60;99.90;;;;;;5019097;28;20815;-81
2023/05/21 01:38:33;;;;;;;5.95;3.70;;;13.70;99.90;;;;;;5024524;28;20782;-81
2023/05/21 01:41:06;;;;;;;6.33;4.13;;;13.70;99.90;;;;;;5025262;28;20535;-79
2023/05/21 01:43:35;;;;;;;7.25;4.45;;;13.70;99.90;;;;;;5025766;28;20431;-79
2023/05/21 01:46:02;;;;;;;6.30;3.83;;;13.60;99.90;;;;;;5026142;28;20430;-79
2023/05/21 01:48:29;;;;;;;8.82;4.82;;;13.70;99.90;;;;;;5026778;28;20493;-79
2023/05/21 01:50:58;;;;;;;7.07;3.83;;;13.70;99.90;;;;;;5017536;28;20463;-80
2023/05/21 01:53:25;;;;;;;6.75;4.50;;;13.70;99.90;;;;;;5024226;28;20865;-81
2023/05/21 01:55:51;;;;;;;5.60;3.90;;;13.60;99.90;;;;;;5025920;28;20813;-81
2023/05/21 01:58:17;;;;;;;8.00;4.00;;;13.60;99.90;;;;;;5035957;28;20534;-77
2023/05/21 02:00:44;;;;;;;6.05;4.28;;;13.60;99.90;;;;;;5032547;28;20434;-80
2023/05/21 02:03:10;;;;;;;7.70;4.10;;;13.70;99.90;;;;;;5034517;28;20451;-79
2023/05/21 02:05:36;;;;;;;5.68;4.00;;;13.70;99.90;;;;;;5033627;28;20433;-78
2023/05/21 02:08:02;;;;;;;4.90;4.30;;;13.70;99.90;;;;;;5034380;28;20490;-82
2023/05/21 02:10:28;;;;;;;4.53;4.13;;;13.60;99.90;;;;;;5028228;28;20438;-77
2023/05/21 02:12:53;;;;;;;6.37;4.40;;;13.60;99.90;;;;;;5028682;28;20407;-77
2023/05/21 02:15:19;;;;;;;9.32;4.57;;;13.60;99.90;;;;;;5029290;28;20924;-80
2023/05/21 02:17:45;;;;;;;6.22;4.13;;;13.60;99.90;;;;;;5027666;28;20506;-77
2023/05/21 02:20:12;;;;;;;7.13;4.68;;;13.70;99.90;;;;;;5025695;28;20937;-82
2023/05/21 02:22:46;;;;;;;6.45;4.38;;;13.50;99.90;;;;;;5029593;28;20440;-80
2023/05/21 02:25:14;;;;;;;8.93;5.32;;;13.70;99.90;;;;;;5026289;28;20433;-78
2023/05/21 02:27:41;;;;;;;5.65;4.15;;;13.60;99.90;;;;;;5023177;28;20418;-80
2023/05/21 02:30:12;;;;;;;7.78;4.82;;;13.50;99.90;;;;;;5021474;28;20427;-80
2023/05/21 02:32:41;;;;;;;8.05;4.82;;;13.60;99.90;;;;;;5021865;28;20493;-78
2023/05/21 02:35:08;;;;;;;6.10;4.70;;;13.50;99.90;;;;;;5022851;28;20453;-80
2023/05/21 02:37:34;;;;;;;8.32;5.65;;;13.50;99.90;;;;;;5026081;28;20439;-82
2023/05/21 02:40:02;;;;;;;9.43;5.95;;;13.50;99.90;;;;;;5014515;28;20430;-75
2023/05/21 02:42:28;;;;;;;7.38;5.65;;;13.60;99.90;;;;;;5026883;28;20435;-81
2023/05/21 02:44:54;;;;;;;9.75;6.03;;;13.50;99.90;;;;;;5026512;28;20425;-81
2023/05/21 02:47:21;;;;;;;12.27;7.03;;;13.50;99.90;;;;;;5025380;28;20496;-76
2023/05/21 02:49:49;;;;;;;9.52;6.78;;;13.50;99.90;;;;;;5021640;28;20427;-80
2023/05/21 02:52:17;;;;;;;10.45;6.72;;;13.50;99.90;;;;;;5024903;28;20844;-75
2023/05/21 02:54:43;;;;;;;10.00;7.50;;;13.60;99.90;;;;;;5025735;28;20434;-75
2023/05/21 02:57:09;;;;;;;14.07;7.63;;;13.30;99.90;;;;;;5025526;28;20944;-80
2023/05/21 02:59:35;;;;;;;11.57;7.37;;;13.40;99.90;;;;;;5024807;28;20427;-74
2023/05/21 03:02:00;;;;;;;10.43;7.60;;;13.40;99.90;;;;;;5025111;28;20423;-79
2023/05/21 03:04:27;;;;;;;10.75;7.43;;;13.30;99.90;;;;;;5026106;28;20422;-79
2023/05/21 03:06:54;;;;;;;11.17;7.93;;;13.30;99.90;;;;;;5025491;28;20426;-77
2023/05/21 03:09:23;;;;;;;9.47;7.70;;;13.40;99.90;;;;;;5024356;28;20423;-79
2023/05/21 03:11:49;;;;;;;12.07;6.95;;;13.30;99.90;;;;;;5025529;28;20418;-79
2023/05/21 03:14:15;;;;;;;12.20;7.60;;;13.30;99.90;;;;;;5025897;28;20446;-81
2023/05/21 03:16:42;;;;;;;12.75;7.55;;;13.30;99.90;;;;;;5023981;28;20458;-79
2023/05/21 03:19:08;;;;;;;13.07;8.23;;;13.20;99.90;;;;;;5020270;28;20439;-77
2023/05/21 03:21:35;;;;;;;10.90;6.55;;;13.30;99.90;;;;;;5024329;28;20465;-80
2023/05/21 03:24:02;;;;;;;12.25;8.07;;;13.30;99.90;;;;;;5024654;28;20838;-81
2023/05/21 03:26:31;;;;;;;13.48;7.68;;;13.30;99.90;;;;;;5024425;28;20933;-76
2023/05/21 03:28:57;;;;;;;11.75;7.47;;;13.30;99.90;;;;;;5023956;28;20762;-80
2023/05/21 03:31:23;;;;;;;14.23;7.75;;;13.30;99.90;;;;;;5024334;28;20426;-81
2023/05/21 03:33:50;;;;;;;9.68;7.53;;;13.30;99.90;;;;;;5027125;28;20423;-81
2023/05/21 03:36:16;;;;;;;10.35;7.13;;;13.20;99.90;;;;;;5028291;28;20422;-78
2023/05/21 03:38:41;;;;;;;13.10;7.77;;;13.20;99.90;;;;;;5010522;28;20963;-79
2023/05/21 03:41:07;;;;;;;11.07;7.23;;;13.30;99.90;;;;;;5028592;28;20432;-81
2023/05/21 03:43:33;;;;;;;10.37;6.67;;;13.30;99.90;;;;;;5026331;28;20534;-79
2023/05/21 03:45:59;;;;;;;10.30;7.53;;;13.30;99.90;;;;;;5029095;28;20490;-81
2023/05/21 03:48:25;;;;;;;10.63;7.27;;;13.20;99.90;;;;;;5022499;28;20543;-76
2023/05/21 03:50:50;;;;;;;11.67;6.70;;;13.40;99.90;;;;;;5023651;28;20415;-80
2023/05/21 03:53:16;;;;;;;14.40;7.03;;;13.20;99.90;;;;;;5023600;28;20423;-80
2023/05/21 03:55:42;;;;;;;10.00;6.83;;;13.30;99.90;;;;;;5025042;28;20431;-79
2023/05/21 03:58:09;;;;;;;13.33;7.03;;;13.20;99.90;;;;;;5026756;28;20788;-81
2023/05/21 04:00:39;;;;;;;14.13;7.53;;;13.30;99.90;;;;;;5026818;28;20419;-80
2023/05/21 04:03:05;;;;;;;11.63;7.30;;;13.30;99.90;;;;;;5027229;28;20446;-78
2023/05/21 04:05:31;;;;;;;10.90;7.05;;;13.20;99.90;;;;;;5027537;28;20478;-80
2023/05/21 04:07:58;;;;;;;10.40;7.05;;;13.20;99.90;;;;;;5027319;28;20434;-73
2023/05/21 04:10:25;;;;;;;11.23;7.40;;;13.20;99.90;;;;;;5028907;28;20423;-76
2023/05/21 04:12:51;;;;;;;12.80;7.77;;;13.30;99.90;;;;;;5027186;28;21048;-81
2023/05/21 04:15:18;;;;;;;11.15;7.75;;;13.20;99.90;;;;;;5028677;28;20502;-78
2023/05/21 04:17:44;;;;;;;16.02;8.10;;;13.20;99.90;;;;;;5023123;28;20454;-80
2023/05/21 04:20:12;;;;;;;17.02;9.15;;;13.20;99.90;;;;;;5024953;28;20426;-79
2023/05/21 04:22:38;;;;;;;11.25;7.85;;;13.20;99.90;;;;;;5026574;28;20438;-79
2023/05/21 04:25:04;;;;;;;14.90;8.18;;;13.20;99.90;;;;;;5026885;28;20423;-81
2023/05/21 04:27:30;;;;;;;12.17;8.43;;;13.20;99.90;;;;;;5025840;28;20932;-80
2023/05/21 04:29:56;;;;;;;13.57;8.13;;;13.10;99.90;;;;;;5023325;28;20423;-78
2023/05/21 04:32:22;;;;;;;15.02;8.30;;;13.20;99.90;;;;;;5028082;28;20446;-77
2023/05/21 04:34:48;;;;;;;14.27;8.00;;;13.30;99.90;;;;;;5026724;28;20516;-77
2023/05/21 04:37:16;;;;;;;12.23;8.32;;;13.20;99.90;;;;;;5026979;28;20427;-79
2023/05/21 04:39:42;;;;;;;12.18;8.25;;;13.30;99.90;;;;;;5026353;28;20423;-75
2023/05/21 04:42:09;;;;;;;15.75;7.95;;;13.30;99.90;;;;;;5024792;28;20431;-81
2023/05/21 04:44:37;;;;;;;10.00;7.87;;;13.20;99.90;;;;;;5025112;28;20435;-79
2023/05/21 04:47:03;;;;;;;13.32;7.85;;;13.10;99.90;;;;;;5026184;28;20446;-79
2023/05/21 04:49:28;;;;;;;12.15;6.75;;;13.10;99.90;;;;;;5017749;28;20505;-79
2023/05/21 04:51:54;;;;;;;10.98;6.85;;;13.20;99.90;;;;;;5026851;28;20431;-75
2023/05/21 04:54:20;;;;;;;10.32;6.35;;;13.10;99.90;;;;;;5027033;28;20431;-78
2023/05/21 04:56:46;;;;;;;12.25;7.22;;;13.20;99.90;;;;;;5024540;28;20454;-79
2023/05/21 04:59:12;;;;;;;12.85;8.18;;;13.20;99.90;;;;;;5026564;28;20510;-79
2023/05/21 05:01:38;;;;;;;10.32;6.22;;;13.30;99.90;;;;;;5025684;28;20427;-78
2023/05/21 05:04:04;;;;;;;12.57;7.43;;;13.20;99.90;;;;;;5026822;28;22076;-79
2023/05/21 05:06:30;;;;;;;10.00;6.40;;;13.20;99.90;;;;;;5026788;28;20422;-80
2023/05/21 05:08:56;;;;;;;11.65;7.30;;;13.20;99.90;;;;;;5025600;28;20439;-77
2023/05/21 05:11:22;;;;;;;12.07;5.70;;;13.20;99.90;;;;;;5024994;28;20497;-80
2023/05/21 05:13:47;;;;;;;9.27;6.05;;;13.30;99.90;;;;;;5025654;28;20479;-76
2023/05/21 05:16:16;;;;;;;13.32;6.07;;;13.30;99.90;;;;;;5027410;28;20983;-80
2023/05/21 05:18:41;;;;;;;15.32;6.43;;;13.30;99.90;;;;;;5020572;28;20519;-79
2023/05/21 05:21:07;;;;;;;11.13;5.60;;;13.30;99.90;;;;;;5025796;28;20517;-81
2023/05/21 05:23:33;;;;;;;9.32;6.00;;;13.40;99.90;;;;;;5025453;28;20441;-79
2023/05/21 05:25:59;;;;;;;9.40;5.72;;;13.40;99.90;;;;;;5025979;28;20435;-80
2023/05/21 05:28:24;;;;;;;8.52;5.57;;;13.50;99.90;;;;;;5025553;28;20445;-76
2023/05/21 05:30:50;;;;;;;12.55;5.68;;;13.50;99.90;;;;;;5025082;28;20492;-80
2023/05/21 05:33:16;;;;;;;9.97;5.57;;;13.40;99.90;;;;;;5024765;28;20430;-81
2023/05/21 05:35:41;;;;;;;11.90;5.20;;;13.50;99.90;;;;;;5025058;28;20431;-81
2023/05/21 05:38:07;;;;;;;9.75;5.90;;;13.50;99.90;;;;;;5025056;28;20455;-79
2023/05/21 05:40:33;;;;;;;11.45;6.30;;;13.50;99.90;;;;;;5026368;28;20413;-80
2023/05/21 05:42:59;;;;;;;10.88;5.95;;;13.50;99.90;;;;;;5025726;28;20493;-80
2023/05/21 05:45:25;;;;;;;9.13;5.38;;;13.70;99.90;;;;;;5024677;28;20431;-80
2023/05/21 05:47:51;;;;;;;10.50;5.70;;;13.70;99.90;;;;;;5017637;28;20439;-76
2023/05/21 05:50:17;;;;;;;12.70;5.83;;;13.80;99.90;;;;;;5023950;28;20472;-79
2023/05/21 05:52:42;;;;;;;9.87;5.27;;;13.70;99.90;;;;;;5025774;28;20423;-81
2023/05/21 05:55:08;;;;;;;13.73;5.70;;;13.80;99.90;;;;;;5027233;28;20477;-79
2023/05/21 05:57:34;;;;;;;9.20;5.63;;;13.80;99.90;;;;;;5025444;28;20431;-79
2023/05/21 06:00:00;;;;;;;9.53;4.73;;;13.90;99.90;;;;;;5022111;28;20434;-74
2023/05/21 06:02:26;;;;;;;8.50;4.47;;;14.00;99.90;;;;;;5022036;28;20431;-80
2023/05/21 06:04:51;;;;;;;6.60;4.30;;;13.80;99.90;;;;;;5023726;28;20434;-79
2023/05/21 06:07:17;;;;;;;9.93;5.57;;;14.00;99.90;;;;;;5026382;28;20426;-76
2023/05/21 06:09:43;;;;;;;9.02;5.20;;;14.00;99.90;;;;;;5026647;28;20477;-78
2023/05/21 06:12:08;;;;;;;11.50;5.33;;;14.00;99.90;;;;;;5024796;28;20430;-78
2023/05/21 06:14:34;;;;;;;11.30;5.70;;;13.90;99.90;;;;;;5024990;28;20509;-77
2023/05/21 06:17:00;;;;;;;8.93;4.65;;;14.20;99.90;;;;;;5026157;28;20433;-79
2023/05/21 06:19:25;;;;;;;9.82;5.43;;;14.20;99.90;;;;;;5021964;28;20511;-81
2023/05/21 06:21:51;;;;;;;11.48;4.75;;;14.40;99.90;;;;;;5021826;28;20502;-77
2023/05/21 06:24:17;;;;;;;12.50;5.40;;;14.30;99.90;;;;;;5022154;28;20493;-79
2023/05/21 06:26:42;;;;;;;9.67;4.40;;;14.40;99.90;;;;;;5021491;28;20513;-78
2023/05/21 06:29:08;;;;;;;10.95;5.20;;;14.60;99.90;;;;;;5021606;28;20422;-79
2023/05/21 06:31:34;;;;;;;8.00;5.07;;;14.60;99.90;;;;;;5023084;28;20443;-78
2023/05/21 06:34:00;;;;;;;8.33;4.97;;;14.60;99.90;;;;;;5020812;28;20435;-80
2023/05/21 06:36:28;;;;;;;13.00;5.90;;;14.60;99.90;;;;;;5020923;28;20434;-75
2023/05/21 06:38:57;;;;;;;10.70;4.80;;;14.60;99.90;;;;;;5022774;28;20426;-82
2023/05/21 06:41:23;;;;;;;11.48;6.20;;;14.70;99.90;;;;;;5021144;28;20774;-82
2023/05/21 06:43:48;;;;;;;13.55;5.70;;;14.80;99.90;;;;;;5019352;28;20453;-80
2023/05/21 06:46:14;;;;;;;12.40;5.13;;;14.80;99.90;;;;;;5021613;28;20488;-81
2023/05/21 06:48:40;;;;;;;11.43;5.85;;;15.00;99.90;;;;;;5018893;28;20968;-81
2023/05/21 06:51:05;;;;;;;8.40;5.20;;;15.00;99.90;;;;;;5021972;28;20450;-78
2023/05/21 06:53:31;;;;;;;11.20;5.57;;;14.90;99.90;;;;;;5023858;28;20430;-79
2023/05/21 06:55:57;;;;;;;10.20;5.15;;;15.00;99.90;;;;;;5019996;28;20426;-78
2023/05/21 06:58:22;;;;;;;10.38;5.00;;;15.20;99.90;;;;;;5022555;28;20476;-79
2023/05/21 07:00:48;;;;;;;11.43;5.57;;;15.20;99.90;;;;;;5022196;28;20506;-76
2023/05/21 07:03:14;;;;;;;9.20;5.67;;;15.40;99.90;;;;;;5020765;28;20430;-82
2023/05/21 07:05:40;;;;;;;9.17;4.90;;;15.20;99.90;;;;;;5022549;28;20445;-80
2023/05/21 07:08:05;;;;;;;10.47;5.13;;;15.30;99.90;;;;;;5026829;28;20665;-78
2023/05/21 07:10:31;;;;;;;9.70;4.45;;;15.20;99.90;;;;;;5025402;28;20435;-83
2023/05/21 07:12:57;;;;;;;10.25;5.40;;;15.20;99.90;;;;;;5021143;28;20775;-82
2023/05/21 07:15:22;;;;;;;10.32;4.90;;;15.40;99.90;;;;;;5022472;28;20759;-82
2023/05/21 07:17:48;;;;;;;10.07;4.83;;;15.60;99.90;;;;;;5022691;28;20541;-81
2023/05/21 07:20:14;;;;;;;7.93;4.43;;;15.50;99.90;;;;;;5012140;28;20443;-81
2023/05/21 07:22:41;;;;;;;7.88;4.68;;;15.50;99.90;;;;;;5023724;28;20545;-81
2023/05/21 07:25:08;;;;;;;8.02;4.85;;;15.60;99.90;;;;;;5026890;28;21354;-83
2023/05/21 07:27:33;;;;;;;8.57;4.97;;;15.60;99.90;;;;;;5027785;28;20418;-79
2023/05/21 07:29:59;;;;;;;10.20;4.63;;;15.60;99.90;;;;;;5029188;28;20435;-82
2023/05/21 07:32:27;;;;;;;9.43;4.70;;;15.30;99.90;;;;;;5027910;28;20453;-85
2023/05/21 07:34:53;;;;;;;6.13;4.93;;;15.40;99.90;;;;;;5026827;28;20414;-77
2023/05/21 07:37:19;;;;;;;8.98;4.72;;;15.40;99.90;;;;;;5028399;28;20426;-82
2023/05/21 07:39:45;;;;;;;9.95;4.78;;;15.50;99.90;;;;;;5010515;28;20413;-80
2023/05/21 07:42:11;;;;;;;7.83;4.90;;;15.50;99.90;;;;;;5027158;28;20426;-83
2023/05/21 07:44:36;;;;;;;7.00;4.38;;;15.80;99.90;;;;;;5029054;28;20433;-81
2023/05/21 07:47:02;;;;;;;8.43;4.55;;;16.00;99.90;;;;;;5026681;28;20415;-75
2023/05/21 07:49:28;;;;;;;6.80;4.57;;;16.10;99.90;;;;;;5024553;28;20500;-81
2023/05/21 07:51:53;;;;;;;8.60;4.73;;;16.30;99.90;;;;;;5028967;28;20882;-78
2023/05/21 07:54:19;;;;;;;6.68;4.60;;;16.20;99.90;;;;;;5018050;28;20434;-73
2023/05/21 07:56:45;;;;;;;6.40;5.00;;;16.50;99.90;;;;;;5027856;28;20418;-78
2023/05/21 07:59:10;;;;;;;6.47;4.47;;;16.60;99.90;;;;;;5028719;28;20427;-83
2023/05/21 08:01:36;;;;;;;11.38;5.50;;;16.40;99.90;;;;;;5027133;28;20411;-85
2023/05/21 08:04:05;;;;;;;6.00;4.20;;;16.70;99.90;;;;;;5027182;28;20890;-78
2023/05/21 08:06:32;;;;;;;10.80;4.93;;;16.60;99.90;;;;;;5027765;28;20415;-87
2023/05/21 08:09:00;;;;;;;7.00;4.47;;;16.50;99.90;;;;;;5026578;28;20540;-82
2023/05/21 08:11:26;;;;;;;8.07;4.50;;;16.50;99.90;;;;;;5026559;28;21069;-83
2023/05/21 08:13:52;;;;;;;8.82;4.30;;;16.60;99.90;;;;;;5028015;28;20418;-83
2023/05/21 08:16:18;;;;;;;8.23;4.63;;;16.70;99.90;;;;;;5027591;28;20427;-82
2023/05/21 08:18:43;;;;;;;9.73;5.07;;;16.90;99.90;;;;;;5025373;28;20446;-86
2023/05/21 08:21:09;;;;;;;6.43;4.20;;;16.80;99.90;;;;;;5034392;28;20419;-81
2023/05/21 08:23:35;;;;;;;7.70;4.95;;;16.90;99.90;;;;;;5034560;28;20439;-81
2023/05/21 08:26:00;;;;;;;7.47;4.43;;;17.00;99.90;;;;;;5027553;28;20511;-81
2023/05/21 08:28:27;;;;;;;7.33;4.27;;;16.90;99.90;;;;;;5029304;28;20462;-83
2023/05/21 08:30:53;;;;;;;5.38;4.20;;;17.10;99.90;;;;;;5029245;28;20945;-75
2023/05/21 08:33:19;;;;;;;6.93;4.00;;;17.10;99.90;;;;;;5027372;28;20415;-81
2023/05/21 08:35:44;;;;;;;5.75;3.58;;;17.40;99.90;;;;;;5028725;28;20515;-84
2023/05/21 08:38:10;;;;;;;7.23;4.17;;;17.40;99.90;;;;;;5026754;28;20425;-75
2023/05/21 08:40:36;;;;;;;6.37;3.80;;;17.40;99.90;;;;;;5027803;28;20505;-78
2023/05/21 08:43:02;;;;;;;6.90;4.53;;;17.40;99.90;;;;;;5026193;28;20517;-80
2023/05/21 08:45:36;;;;;;;7.30;4.10;;;17.30;99.90;;;;;;5024006;28;20830;-78
2023/05/21 08:48:04;;;;;;;7.03;4.00;;;17.20;99.90;;;;;;5025278;28;20838;-81
2023/05/21 08:50:31;;;;;;;7.10;4.00;;;17.00;99.90;;;;;;5026092;28;20429;-78
2023/05/21 08:52:57;;;;;;;6.45;3.85;;;17.10;99.90;;;;;;5027602;28;20545;-73
2023/05/21 08:55:23;;;;;;;7.32;4.00;;;17.40;99.90;;;;;;5025194;28;20423;-80
2023/05/21 08:57:52;;;;;;;9.23;4.20;;;17.70;99.90;;;;;;5028293;28;20496;-77
2023/05/21 09:00:19;;;;;;;7.03;3.95;;;17.40;99.90;;;;;;5026291;28;20454;-78
2023/05/21 09:02:45;;;;;;;7.53;4.30;;;17.30;99.90;;;;;;5024988;28;20770;-83
2023/05/21 09:05:13;;;;;;;7.78;4.00;;;17.20;99.90;;;;;;5024877;28;20817;-76
2023/05/21 09:08:02;;;;;;;7.53;4.93;;;17.10;99.90;;;;;;5027653;28;20422;-86
2023/05/21 09:10:37;;;;;;;9.57;5.03;;;17.20;99.90;;;;;;5010753;28;22077;-84
2023/05/21 09:13:03;;;;;;;11.88;4.72;;;17.30;99.90;;;;;;5025395;28;20809;-85
2023/05/21 09:15:29;;;;;;;7.88;5.00;;;17.20;99.90;;;;;;5024952;28;20450;-82
2023/05/21 09:17:56;;;;;;;8.43;4.73;;;17.40;99.90;;;;;;5026742;28;21015;-81
2023/05/21 09:20:26;;;;;;;10.82;4.75;;;17.40;99.90;;;;;;5025042;28;20817;-82
2023/05/21 09:22:52;;;;;;;7.38;3.85;;;17.10;99.90;;;;;;5027468;28;20948;-86
2023/05/21 09:25:21;;;;;;;7.60;3.80;;;17.20;99.90;;;;;;5025274;28;20539;-79
2023/05/21 09:27:47;;;;;;;8.20;4.15;;;17.40;99.90;;;;;;5027927;28;20499;-79
2023/05/21 09:30:16;;;;;;;6.97;3.53;;;17.50;99.90;;;;;;5024941;28;20553;-76
2023/05/21 09:32:43;;;;;;;7.55;3.60;;;17.60;99.90;;;;;;5022325;28;20925;-79
2023/05/21 09:35:13;;;;;;;11.27;4.38;;;17.40;99.90;;;;;;5019476;28;20426;-76
2023/05/21 09:37:42;;;;;;;7.47;3.65;;;17.50;99.90;;;;;;5017046;28;20551;-79
2023/05/21 09:40:12;;;;;;;4.82;2.90;;;17.50;99.90;;;;;;5024707;28;20457;-79
2023/05/21 09:42:39;;;;;;;6.18;2.97;;;17.30;99.90;;;;;;5023084;28;20438;-80
2023/05/21 09:45:07;;;;;;;6.90;3.50;;;17.40;99.90;;;;;;5012351;28;20424;-79
2023/05/21 09:47:33;;;;;;;6.63;3.65;;;17.40;99.90;;;;;;5019002;28;20510;-81
2023/05/21 09:50:00;;;;;;;10.98;4.07;;;17.50;99.90;;;;;;5025764;28;20521;-84
2023/05/21 09:52:27;;;;;;;9.13;4.05;;;17.40;99.90;;;;;;5018610;28;20491;-77
2023/05/21 09:54:52;;;;;;;7.88;3.55;;;17.50;99.90;;;;;;5025801;28;20809;-77
2023/05/21 09:57:25;;;;;;;7.53;3.60;;;17.60;99.90;;;;;;5018444;28;20553;-79
2023/05/21 09:59:51;;;;;;;8.48;3.65;;;17.80;99.90;;;;;;5027081;28;20905;-83
2023/05/21 10:02:21;;;;;;;12.88;5.13;;;17.50;99.90;;;;;;5025605;28;20477;-80
2023/05/21 10:04:51;;;;;;;8.88;4.88;;;17.80;99.90;;;;;;5008176;28;20442;-79
2023/05/21 10:07:24;;;;;;;10.70;5.10;;;17.50;99.90;;;;;;5022111;28;20415;-75
2023/05/21 10:09:54;;;;;;;8.00;3.75;;;17.80;99.90;;;;;;5024807;28;20441;-82
2023/05/21 10:12:22;;;;;;;9.63;4.15;;;17.90;99.90;;;;;;5025313;28;20917;-80
2023/05/21 10:14:58;;;;;;;8.05;3.85;;;17.80;99.90;;;;;;5025731;28;20967;-77
2023/05/21 10:17:25;;;;;;;7.90;3.60;;;18.00;99.90;;;;;;5024757;28;20502;-75
2023/05/21 10:19:52;;;;;;;6.07;3.42;;;17.80;99.90;;;;;;5025267;28;20430;-79
2023/05/21 10:22:18;;;;;;;9.82;4.40;;;17.70;99.90;;;;;;5023423;28;20469;-79
2023/05/21 10:24:44;;;;;;;6.13;3.85;;;17.70;99.90;;;;;;5024805;28;20431;-76
2023/05/21 10:27:12;;;;;;;7.75;3.95;;;17.90;99.90;;;;;;5025101;28;20415;-81
2023/05/21 10:29:40;;;;;;;10.00;3.85;;;17.80;99.90;;;;;;5026326;28;20928;-78
2023/05/21 10:32:06;;;;;;;8.63;3.92;;;17.80;99.90;;;;;;5026879;28;20621;-81
2023/05/21 10:34:33;;;;;;;8.10;3.70;;;17.80;99.90;;;;;;5022572;28;20431;-74
2023/05/21 10:37:02;;;;;;;8.55;4.32;;;17.90;99.90;;;;;;5025122;28;20730;-82
2023/05/21 10:39:29;;;;;;;8.18;3.88;;;17.80;99.90;;;;;;5022860;28;20530;-78
2023/05/21 10:42:04;;;;;;;8.65;4.10;;;17.70;99.90;;;;;;5024465;28;20457;-78
2023/05/21 10:44:37;;;;;;;6.95;3.58;;;18.00;99.90;;;;;;5026091;28;20415;-78
2023/05/21 10:47:31;;;;;;;7.93;3.10;;;18.10;99.90;;;;;;5022219;28;20533;-79
2023/05/21 10:50:20;;;;;;;7.95;4.00;;;18.20;99.90;;;;;;5015128;28;20418;-79
2023/05/21 10:53:13;;;;;;;8.33;3.57;;;18.30;99.90;;;;;;5025320;28;20516;-81
2023/05/21 10:56:07;;;;;;;8.65;3.97;;;18.40;99.90;;;;;;5023321;28;20477;-75
2023/05/21 10:58:57;;;;;;;10.98;5.07;;;18.30;99.90;;;;;;5027542;28;20980;-85
2023/05/21 11:01:25;;;;;;;10.07;4.45;;;18.60;99.90;;;;;;5026727;28;20438;-81
2023/05/21 11:03:51;;;;;;;7.95;4.05;;;18.50;99.90;;;;;;5019445;28;20439;-85
2023/05/21 11:06:24;;;;;;;8.83;4.40;;;18.70;99.90;;;;;;5026522;28;20446;-80
2023/05/21 11:08:52;;;;;;;9.05;4.63;;;18.60;99.90;;;;;;5028006;28;20427;-73
2023/05/21 11:11:49;;;;;;;9.32;4.10;;;18.30;99.90;;;;;;5028540;28;20510;-78
2023/05/21 11:14:34;;;;;;;9.70;4.40;;;18.70;99.90;;;;;;5024248;28;20457;-74
2023/05/21 11:17:03;;;;;;;10.57;4.80;;;19.00;99.90;;;;;;5036884;28;20430;-82
2023/05/21 11:19:50;;;;;;;7.13;3.80;;;18.50;99.90;;;;;;5040553;28;20458;-81
2023/05/21 11:22:26;;;;;;;6.55;4.10;;;18.60;99.90;;;;;;5034768;28;20457;-84
2023/05/21 11:24:53;;;;;;;8.25;3.88;;;19.00;99.90;;;;;;5028712;28;20462;-86
2023/05/21 11:27:42;;;;;;;8.00;4.00;;;18.80;99.90;;;;;;5027589;28;20422;-82
2023/05/21 11:30:18;;;;;;;7.45;4.07;;;19.10;99.90;;;;;;5022744;28;20415;-81
2023/05/21 11:33:10;;;;;;;12.48;4.55;;;18.90;99.90;;;;;;5028561;28;20443;-75
2023/05/21 11:35:44;;;;;;;7.72;3.00;;;18.80;99.90;;;;;;5029350;28;20790;-77
2023/05/21 11:38:10;;;;;;;8.55;3.85;;;18.90;99.90;;;;;;5027153;28;20426;-85
2023/05/21 11:40:36;;;;;;;10.02;3.65;;;19.00;99.90;;;;;;5027986;28;20442;-83
2023/05/21 11:43:02;;;;;;;5.93;3.37;;;18.70;99.90;;;;;;5025554;28;20469;-80
2023/05/21 11:45:30;;;;;;;7.13;4.33;;;19.00;99.90;;;;;;5028999;28;20403;-82
2023/05/21 11:47:56;;;;;;;7.63;3.37;;;18.80;99.90;;;;;;5026035;28;20426;-86
2023/05/21 11:50:21;;;;;;;8.27;3.80;;;19.00;99.90;;;;;;5028635;28;20430;-82
2023/05/21 11:52:48;;;;;;;10.55;3.67;;;18.70;99.90;;;;;;5032181;28;20434;-75
2023/05/21 11:55:14;;;;;;;7.43;3.75;;;19.20;99.90;;;;;;5032617;28;20418;-85
2023/05/21 11:57:43;;;;;;;5.75;3.72;;;19.10;99.90;;;;;;5031989;28;20435;-86
2023/05/21 12:00:14;;;;;;;6.65;4.32;;;19.20;99.90;;;;;;5033544;28;20918;-78
2023/05/21 12:03:00;;;;;;;9.55;3.70;;;19.10;99.90;;;;;;5028716;28;20513;-79
2023/05/21 12:05:26;;;;;;;7.88;4.15;;;19.40;99.90;;;;;;5028764;28;20703;-75
2023/05/21 12:07:53;;;;;;;7.03;3.80;;;19.40;99.90;;;;;;5024901;28;20477;-86
2023/05/21 12:10:22;;;;;;;11.68;4.43;;;19.60;99.90;;;;;;5023792;28;20419;-82
2023/05/21 12:12:49;;;;;;;11.90;4.20;;;19.30;99.90;;;;;;5028248;28;20435;-80
2023/05/21 12:15:16;;;;;;;7.07;3.50;;;19.30;99.90;;;;;;5027165;28;20510;-81
2023/05/21 12:17:42;;;;;;;10.27;4.60;;;19.50;99.90;;;;;;5026369;28;20449;-82
2023/05/21 12:20:14;;;;;;;9.03;3.97;;;19.30;99.90;;;;;;5011734;28;20430;-85
2023/05/21 12:22:41;;;;;;;8.20;4.33;;;19.30;99.90;;;;;;5028042;28;20505;-78
2023/05/21 12:25:07;;;;;;;9.95;5.03;;;19.50;99.90;;;;;;5025225;28;20426;-83
2023/05/21 12:27:35;;;;;;;8.07;4.90;;;19.50;99.90;;;;;;5026658;28;20446;-79
2023/05/21 12:30:02;;;;;;;9.77;5.30;;;19.70;99.90;;;;;;5025183;28;20466;-78
2023/05/21 12:32:28;;;;;;;10.07;5.28;;;19.60;99.90;;;;;;5027544;28;20515;-79
2023/05/21 12:34:55;;;;;;;10.03;4.87;;;19.30;99.90;;;;;;5027416;28;20439;-80
2023/05/21 12:37:26;;;;;;;10.07;5.90;;;19.40;99.90;;;;;;5028867;28;20458;-77
2023/05/21 12:39:58;;;;;;;8.07;4.85;;;19.60;99.90;;;;;;5025139;28;20461;-77
2023/05/21 12:42:29;;;;;;;8.38;4.72;;;19.90;99.90;;;;;;5024153;28;20490;-80
2023/05/21 12:44:55;;;;;;;8.35;6.63;;;20.00;99.90;;;;;;5025176;28;20781;-77
2023/05/21 12:47:25;;;;;;;9.73;4.80;;;19.60;99.90;;;;;;5026646;28;20477;-81